sensor_id;sensor_type;location;lat;lon;timestamp;P1;durP1;ratioP1;P2;durP2;ratioP2
12832;SDS011;6483;51.310;4.462;2022-08-01T00:01:40;12.27;;;8.95;;
12832;SDS011;6483;51.310;4.462;2022-08-01T00:04:05;12.85;;;8.43;;
12832;SDS011;6483;51.310;4.462;2022-08-01T00:06:31;13.10;;;8.55;;
12832;SDS011;6483;51.310;4.462;2022-08-01T00:08:57;13.68;;;9.32;;
12832;SDS011;6483;51.310;4.462;2022-08-01T00:11:22;15.63;;;9.65;;
12832;SDS011;6483;51.310;4.462;2022-08-01T00:13:48;15.32;;;9.65;;
12832;SDS011;6483;51.310;4.462;2022-08-01T00:16:14;15.27;;;9.32;;
12832;SDS011;6483;51.310;4.462;2022-08-01T00:18:43;16.80;;;10.20;;
12832;SDS011;6483;51.310;4.462;2022-08-01T00:21:09;12.38;;;9.55;;
12832;SDS011;6483;51.310;4.462;2022-08-01T00:23:35;13.40;;;9.77;;
12832;SDS011;6483;51.310;4.462;2022-08-01T00:26:01;17.23;;;10.93;;
12832;SDS011;6483;51.310;4.462;2022-08-01T00:28:30;16.85;;;11.40;;
12832;SDS011;6483;51.310;4.462;2022-08-01T00:30:55;17.98;;;11.45;;
12832;SDS011;6483;51.310;4.462;2022-08-01T00:33:21;16.73;;;10.77;;
12832;SDS011;6483;51.310;4.462;2022-08-01T00:35:47;19.17;;;12.70;;
12832;SDS011;6483;51.310;4.462;2022-08-01T00:38:14;19.85;;;13.18;;
12832;SDS011;6483;51.310;4.462;2022-08-01T00:40:41;16.73;;;13.38;;
12832;SDS011;6483;51.310;4.462;2022-08-01T00:43:10;25.02;;;15.00;;
12832;SDS011;6483;51.310;4.462;2022-08-01T00:45:44;20.05;;;14.05;;
12832;SDS011;6483;51.310;4.462;2022-08-01T00:48:10;21.35;;;13.52;;
12832;SDS011;6483;51.310;4.462;2022-08-01T00:50:36;20.05;;;14.50;;
12832;SDS011;6483;51.310;4.462;2022-08-01T00:53:03;20.83;;;14.02;;
12832;SDS011;6483;51.310;4.462;2022-08-01T00:55:32;23.15;;;15.23;;
12832;SDS011;6483;51.310;4.462;2022-08-01T00:57:58;27.80;;;15.43;;
12832;SDS011;6483;51.310;4.462;2022-08-01T01:00:27;24.98;;;15.55;;
12832;SDS011;6483;51.310;4.462;2022-08-01T01:02:57;22.95;;;15.30;;
12832;SDS011;6483;51.310;4.462;2022-08-01T01:05:23;27.33;;;16.67;;
12832;SDS011;6483;51.310;4.462;2022-08-01T01:10:19;22.65;;;15.77;;
12832;SDS011;6483;51.310;4.462;2022-08-01T01:13:06;23.30;;;12.88;;
12832;SDS011;6483;51.310;4.462;2022-08-01T01:15:59;17.55;;;11.70;;
12832;SDS011;6483;51.310;4.462;2022-08-01T01:29:51;14.52;;;10.13;;
12832;SDS011;6483;51.310;4.462;2022-08-01T01:35:07;15.20;;;9.10;;
12832;SDS011;6483;51.310;4.462;2022-08-01T01:37:39;12.70;;;8.73;;
12832;SDS011;6483;51.310;4.462;2022-08-01T01:40:06;12.00;;;8.52;;
12832;SDS011;6483;51.310;4.462;2022-08-01T01:42:34;14.70;;;8.27;;
12832;SDS011;6483;51.310;4.462;2022-08-01T01:45:01;15.48;;;8.00;;
12832;SDS011;6483;51.310;4.462;2022-08-01T01:47:28;10.15;;;6.97;;
12832;SDS011;6483;51.310;4.462;2022-08-01T01:49:59;10.23;;;6.75;;
12832;SDS011;6483;51.310;4.462;2022-08-01T01:52:26;11.82;;;6.93;;
12832;SDS011;6483;51.310;4.462;2022-08-01T01:54:54;10.18;;;6.78;;
12832;SDS011;6483;51.310;4.462;2022-08-01T01:57:22;11.30;;;6.65;;
12832;SDS011;6483;51.310;4.462;2022-08-01T01:59:49;8.38;;;6.30;;
12832;SDS011;6483;51.310;4.462;2022-08-01T02:02:16;12.38;;;6.57;;
12832;SDS011;6483;51.310;4.462;2022-08-01T02:04:45;8.75;;;5.65;;
12832;SDS011;6483;51.310;4.462;2022-08-01T02:07:14;8.50;;;5.82;;
12832;SDS011;6483;51.310;4.462;2022-08-01T02:09:44;12.77;;;5.35;;
12832;SDS011;6483;51.310;4.462;2022-08-01T02:12:12;9.75;;;5.28;;
12832;SDS011;6483;51.310;4.462;2022-08-01T02:14:39;8.60;;;5.53;;
12832;SDS011;6483;51.310;4.462;2022-08-01T02:17:08;11.13;;;5.63;;
12832;SDS011;6483;51.310;4.462;2022-08-01T02:19:37;8.45;;;5.22;;
12832;SDS011;6483;51.310;4.462;2022-08-01T02:22:21;9.15;;;5.88;;
12832;SDS011;6483;51.310;4.462;2022-08-01T02:25:23;8.80;;;6.20;;
12832;SDS011;6483;51.310;4.462;2022-08-01T02:28:04;7.47;;;4.90;;
12832;SDS011;6483;51.310;4.462;2022-08-01T02:30:34;9.68;;;5.47;;
12832;SDS011;6483;51.310;4.462;2022-08-01T02:33:05;8.73;;;5.95;;
12832;SDS011;6483;51.310;4.462;2022-08-01T02:35:33;9.00;;;5.60;;
12832;SDS011;6483;51.310;4.462;2022-08-01T02:38:03;7.63;;;5.10;;
12832;SDS011;6483;51.310;4.462;2022-08-01T02:40:34;6.63;;;5.05;;
12832;SDS011;6483;51.310;4.462;2022-08-01T02:43:05;8.13;;;4.85;;
12832;SDS011;6483;51.310;4.462;2022-08-01T02:45:39;5.00;;;4.50;;
12832;SDS011;6483;51.310;4.462;2022-08-01T02:48:13;9.15;;;4.65;;
12832;SDS011;6483;51.310;4.462;2022-08-01T02:50:42;6.82;;;4.80;;
12832;SDS011;6483;51.310;4.462;2022-08-01T02:53:09;8.02;;;4.43;;
12832;SDS011;6483;51.310;4.462;2022-08-01T02:55:41;7.05;;;4.93;;
12832;SDS011;6483;51.310;4.462;2022-08-01T02:58:28;4.97;;;4.22;;
12832;SDS011;6483;51.310;4.462;2022-08-01T03:00:54;9.50;;;4.30;;
12832;SDS011;6483;51.310;4.462;2022-08-01T03:03:20;7.78;;;4.07;;
12832;SDS011;6483;51.310;4.462;2022-08-01T03:05:48;6.07;;;3.85;;
12832;SDS011;6483;51.310;4.462;2022-08-01T03:08:14;7.80;;;3.58;;
12832;SDS011;6483;51.310;4.462;2022-08-01T03:10:45;5.20;;;3.08;;
12832;SDS011;6483;51.310;4.462;2022-08-01T03:13:13;5.95;;;3.70;;
12832;SDS011;6483;51.310;4.462;2022-08-01T03:15:40;6.43;;;3.40;;
12832;SDS011;6483;51.310;4.462;2022-08-01T03:18:08;5.15;;;3.15;;
12832;SDS011;6483;51.310;4.462;2022-08-01T03:20:36;5.03;;;2.88;;
12832;SDS011;6483;51.310;4.462;2022-08-01T03:23:04;7.97;;;3.28;;
12832;SDS011;6483;51.310;4.462;2022-08-01T03:25:31;3.97;;;2.75;;
12832;SDS011;6483;51.310;4.462;2022-08-01T03:28:01;4.95;;;3.28;;
12832;SDS011;6483;51.310;4.462;2022-08-01T03:30:29;3.00;;;2.70;;
12832;SDS011;6483;51.310;4.462;2022-08-01T03:32:59;3.40;;;2.63;;
12832;SDS011;6483;51.310;4.462;2022-08-01T03:35:29;5.32;;;2.60;;
12832;SDS011;6483;51.310;4.462;2022-08-01T03:38:02;5.25;;;3.28;;
12832;SDS011;6483;51.310;4.462;2022-08-01T03:40:37;2.92;;;2.15;;
12832;SDS011;6483;51.310;4.462;2022-08-01T03:43:05;3.53;;;2.63;;
12832;SDS011;6483;51.310;4.462;2022-08-01T03:45:37;3.25;;;2.33;;
12832;SDS011;6483;51.310;4.462;2022-08-01T03:48:09;4.35;;;2.70;;
12832;SDS011;6483;51.310;4.462;2022-08-01T03:50:41;4.70;;;2.85;;
12832;SDS011;6483;51.310;4.462;2022-08-01T03:53:13;3.67;;;2.17;;
12832;SDS011;6483;51.310;4.462;2022-08-01T03:55:41;3.05;;;2.17;;
12832;SDS011;6483;51.310;4.462;2022-08-01T03:58:09;4.60;;;2.70;;
12832;SDS011;6483;51.310;4.462;2022-08-01T04:00:36;2.75;;;2.25;;
12832;SDS011;6483;51.310;4.462;2022-08-01T04:03:12;3.30;;;2.22;;
12832;SDS011;6483;51.310;4.462;2022-08-01T04:05:41;6.10;;;2.33;;
12832;SDS011;6483;51.310;4.462;2022-08-01T04:08:11;3.85;;;2.35;;
12832;SDS011;6483;51.310;4.462;2022-08-01T04:10:37;3.45;;;2.15;;
12832;SDS011;6483;51.310;4.462;2022-08-01T04:13:03;3.45;;;1.95;;
12832;SDS011;6483;51.310;4.462;2022-08-01T04:15:28;3.35;;;2.28;;
12832;SDS011;6483;51.310;4.462;2022-08-01T04:18:00;6.20;;;2.22;;
12832;SDS011;6483;51.310;4.462;2022-08-01T04:20:26;3.90;;;3.10;;
12832;SDS011;6483;51.310;4.462;2022-08-01T04:22:51;3.17;;;2.70;;
12832;SDS011;6483;51.310;4.462;2022-08-01T04:25:19;3.38;;;2.17;;
12832;SDS011;6483;51.310;4.462;2022-08-01T04:27:52;2.92;;;2.47;;
12832;SDS011;6483;51.310;4.462;2022-08-01T04:30:21;6.10;;;3.13;;
12832;SDS011;6483;51.310;4.462;2022-08-01T04:32:50;4.03;;;2.63;;
12832;SDS011;6483;51.310;4.462;2022-08-01T04:35:20;2.42;;;2.15;;
12832;SDS011;6483;51.310;4.462;2022-08-01T04:37:47;3.83;;;3.03;;
12832;SDS011;6483;51.310;4.462;2022-08-01T04:40:16;5.15;;;3.15;;
12832;SDS011;6483;51.310;4.462;2022-08-01T04:42:50;4.47;;;2.70;;
12832;SDS011;6483;51.310;4.462;2022-08-01T04:45:16;4.72;;;3.00;;
12832;SDS011;6483;51.310;4.462;2022-08-01T04:47:42;2.60;;;2.40;;
12832;SDS011;6483;51.310;4.462;2022-08-01T04:50:09;3.85;;;3.03;;
12832;SDS011;6483;51.310;4.462;2022-08-01T04:52:36;4.18;;;3.10;;
12832;SDS011;6483;51.310;4.462;2022-08-01T04:55:03;5.03;;;3.22;;
12832;SDS011;6483;51.310;4.462;2022-08-01T04:57:37;4.22;;;3.00;;
12832;SDS011;6483;51.310;4.462;2022-08-01T05:00:06;3.92;;;3.03;;
12832;SDS011;6483;51.310;4.462;2022-08-01T05:02:32;6.85;;;3.30;;
12832;SDS011;6483;51.310;4.462;2022-08-01T05:04:58;5.20;;;3.00;;
12832;SDS011;6483;51.310;4.462;2022-08-01T05:07:27;5.22;;;3.00;;
12832;SDS011;6483;51.310;4.462;2022-08-01T05:09:52;5.95;;;3.47;;
12832;SDS011;6483;51.310;4.462;2022-08-01T05:12:22;3.47;;;2.97;;
12832;SDS011;6483;51.310;4.462;2022-08-01T05:14:48;3.60;;;2.50;;
12832;SDS011;6483;51.310;4.462;2022-08-01T05:17:14;3.35;;;2.80;;
12832;SDS011;6483;51.310;4.462;2022-08-01T05:19:40;6.30;;;3.10;;
12832;SDS011;6483;51.310;4.462;2022-08-01T05:22:06;3.97;;;2.63;;
12832;SDS011;6483;51.310;4.462;2022-08-01T05:24:33;3.47;;;3.08;;
12832;SDS011;6483;51.310;4.462;2022-08-01T05:27:00;3.83;;;3.22;;
12832;SDS011;6483;51.310;4.462;2022-08-01T05:29:28;4.38;;;3.05;;
12832;SDS011;6483;51.310;4.462;2022-08-01T05:31:53;6.75;;;2.92;;
12832;SDS011;6483;51.310;4.462;2022-08-01T05:34:20;3.47;;;3.17;;
12832;SDS011;6483;51.310;4.462;2022-08-01T05:36:46;4.20;;;2.80;;
12832;SDS011;6483;51.310;4.462;2022-08-01T05:39:12;2.85;;;2.65;;
12832;SDS011;6483;51.310;4.462;2022-08-01T05:41:44;4.22;;;3.03;;
12832;SDS011;6483;51.310;4.462;2022-08-01T05:44:09;3.13;;;2.80;;
12832;SDS011;6483;51.310;4.462;2022-08-01T05:46:35;4.35;;;2.97;;
12832;SDS011;6483;51.310;4.462;2022-08-01T05:49:02;5.30;;;3.13;;
12832;SDS011;6483;51.310;4.462;2022-08-01T05:51:29;2.97;;;2.70;;
12832;SDS011;6483;51.310;4.462;2022-08-01T05:53:55;3.25;;;2.47;;
12832;SDS011;6483;51.310;4.462;2022-08-01T05:56:24;3.80;;;2.63;;
12832;SDS011;6483;51.310;4.462;2022-08-01T05:58:50;4.43;;;2.70;;
12832;SDS011;6483;51.310;4.462;2022-08-01T06:01:20;3.55;;;2.50;;
12832;SDS011;6483;51.310;4.462;2022-08-01T06:03:46;4.30;;;2.40;;
12832;SDS011;6483;51.310;4.462;2022-08-01T06:06:12;3.25;;;2.00;;
12832;SDS011;6483;51.310;4.462;2022-08-01T06:08:42;2.75;;;2.05;;
12832;SDS011;6483;51.310;4.462;2022-08-01T06:11:08;4.03;;;2.10;;
12832;SDS011;6483;51.310;4.462;2022-08-01T06:13:33;3.17;;;2.00;;
12832;SDS011;6483;51.310;4.462;2022-08-01T06:15:59;3.13;;;2.03;;
12832;SDS011;6483;51.310;4.462;2022-08-01T06:18:29;2.80;;;2.03;;
12832;SDS011;6483;51.310;4.462;2022-08-01T06:20:55;2.70;;;1.65;;
12832;SDS011;6483;51.310;4.462;2022-08-01T06:23:21;2.65;;;1.58;;
12832;SDS011;6483;51.310;4.462;2022-08-01T06:25:46;1.80;;;1.48;;
12832;SDS011;6483;51.310;4.462;2022-08-01T06:28:12;1.23;;;0.98;;
12832;SDS011;6483;51.310;4.462;2022-08-01T06:30:41;1.80;;;1.15;;
12832;SDS011;6483;51.310;4.462;2022-08-01T06:33:07;1.35;;;0.90;;
12832;SDS011;6483;51.310;4.462;2022-08-01T06:35:36;1.08;;;0.82;;
12832;SDS011;6483;51.310;4.462;2022-08-01T06:38:02;1.27;;;0.90;;
12832;SDS011;6483;51.310;4.462;2022-08-01T06:40:28;1.52;;;0.80;;
12832;SDS011;6483;51.310;4.462;2022-08-01T06:42:54;0.77;;;0.60;;
12832;SDS011;6483;51.310;4.462;2022-08-01T06:45:19;1.23;;;0.80;;
12832;SDS011;6483;51.310;4.462;2022-08-01T06:47:50;3.75;;;0.80;;
12832;SDS011;6483;51.310;4.462;2022-08-01T06:50:23;1.27;;;0.68;;
12832;SDS011;6483;51.310;4.462;2022-08-01T06:52:48;1.52;;;0.73;;
12832;SDS011;6483;51.310;4.462;2022-08-01T06:55:14;2.17;;;1.42;;
12832;SDS011;6483;51.310;4.462;2022-08-01T06:57:49;1.35;;;0.82;;
12832;SDS011;6483;51.310;4.462;2022-08-01T07:00:16;1.83;;;0.98;;
12832;SDS011;6483;51.310;4.462;2022-08-01T07:02:45;4.63;;;0.98;;
12832;SDS011;6483;51.310;4.462;2022-08-01T07:05:11;1.75;;;1.10;;
12832;SDS011;6483;51.310;4.462;2022-08-01T07:07:38;0.70;;;0.70;;
12832;SDS011;6483;51.310;4.462;2022-08-01T07:10:07;0.85;;;0.70;;
12832;SDS011;6483;51.310;4.462;2022-08-01T07:12:36;0.98;;;0.60;;
12832;SDS011;6483;51.310;4.462;2022-08-01T07:15:06;0.70;;;0.57;;
12832;SDS011;6483;51.310;4.462;2022-08-01T07:17:36;2.08;;;0.80;;
12832;SDS011;6483;51.310;4.462;2022-08-01T07:20:09;2.85;;;1.05;;
12832;SDS011;6483;51.310;4.462;2022-08-01T07:22:39;1.40;;;0.80;;
12832;SDS011;6483;51.310;4.462;2022-08-01T07:25:05;1.58;;;0.80;;
12832;SDS011;6483;51.310;4.462;2022-08-01T07:27:37;1.02;;;0.68;;
12832;SDS011;6483;51.310;4.462;2022-08-01T07:30:06;0.70;;;0.70;;
12832;SDS011;6483;51.310;4.462;2022-08-01T07:32:35;1.33;;;0.73;;
12832;SDS011;6483;51.310;4.462;2022-08-01T07:35:04;0.57;;;0.57;;
12832;SDS011;6483;51.310;4.462;2022-08-01T07:37:38;0.90;;;0.90;;
12832;SDS011;6483;51.310;4.462;2022-08-01T07:40:04;1.02;;;0.60;;
12832;SDS011;6483;51.310;4.462;2022-08-01T07:42:30;1.67;;;0.65;;
12832;SDS011;6483;51.310;4.462;2022-08-01T07:44:57;0.80;;;0.63;;
12832;SDS011;6483;51.310;4.462;2022-08-01T07:47:23;3.20;;;1.20;;
12832;SDS011;6483;51.310;4.462;2022-08-01T07:49:58;1.33;;;0.88;;
12832;SDS011;6483;51.310;4.462;2022-08-01T07:52:25;2.55;;;0.95;;
12832;SDS011;6483;51.310;4.462;2022-08-01T07:54:52;2.65;;;1.35;;
12832;SDS011;6483;51.310;4.462;2022-08-01T07:57:21;3.35;;;1.17;;
12832;SDS011;6483;51.310;4.462;2022-08-01T07:59:47;2.42;;;1.20;;
12832;SDS011;6483;51.310;4.462;2022-08-01T08:02:16;5.25;;;1.52;;
12832;SDS011;6483;51.310;4.462;2022-08-01T08:04:41;1.48;;;1.10;;
12832;SDS011;6483;51.310;4.462;2022-08-01T08:07:07;1.27;;;0.90;;
12832;SDS011;6483;51.310;4.462;2022-08-01T08:09:33;3.08;;;0.98;;
12832;SDS011;6483;51.310;4.462;2022-08-01T08:11:59;2.90;;;1.25;;
12832;SDS011;6483;51.310;4.462;2022-08-01T08:14:25;1.15;;;1.05;;
12832;SDS011;6483;51.310;4.462;2022-08-01T08:16:52;1.77;;;1.20;;
12832;SDS011;6483;51.310;4.462;2022-08-01T08:19:18;4.25;;;1.35;;
12832;SDS011;6483;51.310;4.462;2022-08-01T08:21:43;2.17;;;1.10;;
12832;SDS011;6483;51.310;4.462;2022-08-01T08:24:09;5.45;;;1.30;;
12832;SDS011;6483;51.310;4.462;2022-08-01T08:26:49;7.07;;;2.10;;
12832;SDS011;6483;51.310;4.462;2022-08-01T08:29:23;3.30;;;1.40;;
12832;SDS011;6483;51.310;4.462;2022-08-01T08:31:50;1.75;;;1.35;;
12832;SDS011;6483;51.310;4.462;2022-08-01T08:34:17;1.60;;;1.02;;
12832;SDS011;6483;51.310;4.462;2022-08-01T08:36:46;2.75;;;1.35;;
12832;SDS011;6483;51.310;4.462;2022-08-01T08:39:16;4.00;;;1.05;;
12832;SDS011;6483;51.310;4.462;2022-08-01T08:41:42;2.00;;;1.00;;
12832;SDS011;6483;51.310;4.462;2022-08-01T08:44:08;3.63;;;1.10;;
12832;SDS011;6483;51.310;4.462;2022-08-01T08:46:42;1.25;;;1.00;;
12832;SDS011;6483;51.310;4.462;2022-08-01T08:49:09;3.35;;;1.48;;
12832;SDS011;6483;51.310;4.462;2022-08-01T08:51:39;2.28;;;1.55;;
12832;SDS011;6483;51.310;4.462;2022-08-01T08:54:11;3.95;;;1.55;;
12832;SDS011;6483;51.310;4.462;2022-08-01T08:56:38;5.25;;;1.55;;
12832;SDS011;6483;51.310;4.462;2022-08-01T08:59:07;2.55;;;1.40;;
12832;SDS011;6483;51.310;4.462;2022-08-01T09:01:38;2.72;;;1.40;;
12832;SDS011;6483;51.310;4.462;2022-08-01T09:04:10;3.28;;;1.35;;
12832;SDS011;6483;51.310;4.462;2022-08-01T09:06:37;1.77;;;0.90;;
12832;SDS011;6483;51.310;4.462;2022-08-01T09:09:07;1.75;;;1.20;;
12832;SDS011;6483;51.310;4.462;2022-08-01T09:11:33;6.75;;;1.52;;
12832;SDS011;6483;51.310;4.462;2022-08-01T09:16:42;1.48;;;1.02;;
12832;SDS011;6483;51.310;4.462;2022-08-01T09:19:18;4.82;;;1.10;;
12832;SDS011;6483;51.310;4.462;2022-08-01T09:22:00;1.80;;;1.00;;
12832;SDS011;6483;51.310;4.462;2022-08-01T09:24:32;5.97;;;1.23;;
12832;SDS011;6483;51.310;4.462;2022-08-01T09:27:14;3.08;;;1.50;;
12832;SDS011;6483;51.310;4.462;2022-08-01T09:30:10;5.18;;;2.08;;
12832;SDS011;6483;51.310;4.462;2022-08-01T09:32:57;3.03;;;1.73;;
12832;SDS011;6483;51.310;4.462;2022-08-01T09:35:33;2.58;;;1.27;;
12832;SDS011;6483;51.310;4.462;2022-08-01T09:40:53;2.25;;;1.52;;
12832;SDS011;6483;51.310;4.462;2022-08-01T09:43:23;1.90;;;1.60;;
12832;SDS011;6483;51.310;4.462;2022-08-01T09:45:53;2.85;;;1.20;;
12832;SDS011;6483;51.310;4.462;2022-08-01T09:48:20;2.65;;;1.20;;
12832;SDS011;6483;51.310;4.462;2022-08-01T09:50:47;2.70;;;1.20;;
12832;SDS011;6483;51.310;4.462;2022-08-01T09:53:14;7.47;;;1.80;;
12832;SDS011;6483;51.310;4.462;2022-08-01T09:55:44;5.13;;;1.45;;
12832;SDS011;6483;51.310;4.462;2022-08-01T09:58:11;5.25;;;1.83;;
12832;SDS011;6483;51.310;4.462;2022-08-01T10:00:39;7.45;;;1.42;;
12832;SDS011;6483;51.310;4.462;2022-08-01T10:03:21;3.60;;;1.50;;
12832;SDS011;6483;51.310;4.462;2022-08-01T10:05:48;4.72;;;1.63;;
12832;SDS011;6483;51.310;4.462;2022-08-01T10:08:16;4.35;;;1.50;;
12832;SDS011;6483;51.310;4.462;2022-08-01T10:10:43;3.10;;;1.52;;
12832;SDS011;6483;51.310;4.462;2022-08-01T10:13:36;3.83;;;1.48;;
12832;SDS011;6483;51.310;4.462;2022-08-01T10:16:02;3.28;;;1.55;;
12832;SDS011;6483;51.310;4.462;2022-08-01T10:18:30;2.67;;;1.23;;
12832;SDS011;6483;51.310;4.462;2022-08-01T10:20:58;16.58;;;1.95;;
12832;SDS011;6483;51.310;4.462;2022-08-01T10:23:30;2.50;;;1.40;;
12832;SDS011;6483;51.310;4.462;2022-08-01T10:26:02;3.72;;;1.30;;
12832;SDS011;6483;51.310;4.462;2022-08-01T10:28:35;2.15;;;1.30;;
12832;SDS011;6483;51.310;4.462;2022-08-01T10:31:07;5.30;;;1.58;;
12832;SDS011;6483;51.310;4.462;2022-08-01T10:33:41;4.53;;;1.40;;
12832;SDS011;6483;51.310;4.462;2022-08-01T10:36:07;5.45;;;1.90;;
12832;SDS011;6483;51.310;4.462;2022-08-01T10:38:35;4.28;;;1.90;;
12832;SDS011;6483;51.310;4.462;2022-08-01T10:41:02;2.95;;;1.70;;
12832;SDS011;6483;51.310;4.462;2022-08-01T10:43:29;3.03;;;1.08;;
12832;SDS011;6483;51.310;4.462;2022-08-01T10:45:57;2.95;;;1.30;;
12832;SDS011;6483;51.310;4.462;2022-08-01T10:48:29;3.35;;;1.20;;
12832;SDS011;6483;51.310;4.462;2022-08-01T10:51:05;5.53;;;1.75;;
12832;SDS011;6483;51.310;4.462;2022-08-01T10:53:37;3.20;;;1.35;;
12832;SDS011;6483;51.310;4.462;2022-08-01T10:56:11;3.25;;;1.55;;
12832;SDS011;6483;51.310;4.462;2022-08-01T10:58:38;3.97;;;1.42;;
12832;SDS011;6483;51.310;4.462;2022-08-01T11:01:16;4.13;;;1.42;;
12832;SDS011;6483;51.310;4.462;2022-08-01T11:07:01;3.03;;;1.20;;
12832;SDS011;6483;51.310;4.462;2022-08-01T11:09:40;3.35;;;1.20;;
12832;SDS011;6483;51.310;4.462;2022-08-01T11:12:19;5.95;;;1.70;;
12832;SDS011;6483;51.310;4.462;2022-08-01T11:20:17;2.42;;;1.20;;
12832;SDS011;6483;51.310;4.462;2022-08-01T11:28:22;1.77;;;1.30;;
12832;SDS011;6483;51.310;4.462;2022-08-01T11:30:49;5.47;;;1.90;;
12832;SDS011;6483;51.310;4.462;2022-08-01T11:38:42;3.42;;;1.60;;
12832;SDS011;6483;51.310;4.462;2022-08-01T11:41:12;5.05;;;1.70;;
12832;SDS011;6483;51.310;4.462;2022-08-01T11:52:17;4.38;;;1.42;;
12832;SDS011;6483;51.310;4.462;2022-08-01T11:54:49;4.00;;;1.30;;
12832;SDS011;6483;51.310;4.462;2022-08-01T11:57:21;3.22;;;1.30;;
12832;SDS011;6483;51.310;4.462;2022-08-01T12:00:00;1.50;;;1.08;;
12832;SDS011;6483;51.310;4.462;2022-08-01T12:02:43;3.10;;;1.48;;
12832;SDS011;6483;51.310;4.462;2022-08-01T12:05:17;4.57;;;1.50;;
12832;SDS011;6483;51.310;4.462;2022-08-01T12:07:47;2.92;;;1.10;;
12832;SDS011;6483;51.310;4.462;2022-08-01T12:10:17;4.85;;;1.58;;
12832;SDS011;6483;51.310;4.462;2022-08-01T12:13:03;6.78;;;1.80;;
12832;SDS011;6483;51.310;4.462;2022-08-01T12:15:31;16.05;;;2.42;;
12832;SDS011;6483;51.310;4.462;2022-08-01T12:18:21;1.35;;;0.77;;
12832;SDS011;6483;51.310;4.462;2022-08-01T12:20:47;1.05;;;0.95;;
12832;SDS011;6483;51.310;4.462;2022-08-01T12:23:14;2.38;;;1.02;;
12832;SDS011;6483;51.310;4.462;2022-08-01T12:25:44;1.98;;;1.02;;
12832;SDS011;6483;51.310;4.462;2022-08-01T12:28:16;2.13;;;0.80;;
12832;SDS011;6483;51.310;4.462;2022-08-01T12:30:43;2.28;;;0.80;;
12832;SDS011;6483;51.310;4.462;2022-08-01T12:33:16;2.00;;;0.90;;
12832;SDS011;6483;51.310;4.462;2022-08-01T12:35:43;2.15;;;0.85;;
12832;SDS011;6483;51.310;4.462;2022-08-01T12:38:18;3.80;;;0.90;;
12832;SDS011;6483;51.310;4.462;2022-08-01T12:40:47;0.93;;;0.80;;
12832;SDS011;6483;51.310;4.462;2022-08-01T12:43:19;2.35;;;0.80;;
12832;SDS011;6483;51.310;4.462;2022-08-01T12:45:50;3.00;;;1.10;;
12832;SDS011;6483;51.310;4.462;2022-08-01T12:48:17;1.90;;;1.02;;
12832;SDS011;6483;51.310;4.462;2022-08-01T12:50:47;3.20;;;1.08;;
12832;SDS011;6483;51.310;4.462;2022-08-01T12:53:14;1.40;;;0.82;;
12832;SDS011;6483;51.310;4.462;2022-08-01T12:55:47;2.97;;;1.10;;
12832;SDS011;6483;51.310;4.462;2022-08-01T12:58:19;1.13;;;0.52;;
12832;SDS011;6483;51.310;4.462;2022-08-01T13:00:47;3.50;;;1.23;;
12832;SDS011;6483;51.310;4.462;2022-08-01T13:04:12;1.45;;;0.90;;
12832;SDS011;6483;51.310;4.462;2022-08-01T13:06:24;2.60;;;1.17;;
12832;SDS011;6483;51.310;4.462;2022-08-01T13:09:10;2.42;;;1.40;;
12832;SDS011;6483;51.310;4.462;2022-08-01T13:11:37;2.60;;;0.80;;
12832;SDS011;6483;51.310;4.462;2022-08-01T13:14:03;3.83;;;1.20;;
12832;SDS011;6483;51.310;4.462;2022-08-01T13:16:29;4.18;;;1.92;;
12832;SDS011;6483;51.310;4.462;2022-08-01T13:18:58;5.78;;;1.90;;
12832;SDS011;6483;51.310;4.462;2022-08-01T13:21:30;3.40;;;1.40;;
12832;SDS011;6483;51.310;4.462;2022-08-01T13:26:48;5.57;;;1.80;;
12832;SDS011;6483;51.310;4.462;2022-08-01T13:29:19;5.78;;;1.95;;
12832;SDS011;6483;51.310;4.462;2022-08-01T13:31:46;4.80;;;1.80;;
12832;SDS011;6483;51.310;4.462;2022-08-01T13:34:12;2.55;;;1.20;;
12832;SDS011;6483;51.310;4.462;2022-08-01T13:36:39;3.03;;;1.48;;
12832;SDS011;6483;51.310;4.462;2022-08-01T13:39:05;3.20;;;1.35;;
12832;SDS011;6483;51.310;4.462;2022-08-01T13:41:52;3.00;;;1.25;;
12832;SDS011;6483;51.310;4.462;2022-08-01T13:44:18;5.80;;;1.10;;
12832;SDS011;6483;51.310;4.462;2022-08-01T13:46:44;2.50;;;1.20;;
12832;SDS011;6483;51.310;4.462;2022-08-01T13:49:12;6.70;;;1.80;;
12832;SDS011;6483;51.310;4.462;2022-08-01T13:51:38;4.57;;;1.20;;
12832;SDS011;6483;51.310;4.462;2022-08-01T13:54:09;3.70;;;1.30;;
12832;SDS011;6483;51.310;4.462;2022-08-01T13:56:35;3.03;;;1.40;;
12832;SDS011;6483;51.310;4.462;2022-08-01T13:59:04;4.38;;;1.50;;
12832;SDS011;6483;51.310;4.462;2022-08-01T14:01:31;3.88;;;1.67;;
12832;SDS011;6483;51.310;4.462;2022-08-01T14:03:57;2.33;;;1.42;;
12832;SDS011;6483;51.310;4.462;2022-08-01T14:06:23;6.00;;;2.10;;
12832;SDS011;6483;51.310;4.462;2022-08-01T14:08:49;3.10;;;1.50;;
12832;SDS011;6483;51.310;4.462;2022-08-01T14:11:16;3.92;;;1.70;;
12832;SDS011;6483;51.310;4.462;2022-08-01T14:13:42;3.60;;;1.50;;
12832;SDS011;6483;51.310;4.462;2022-08-01T14:16:09;7.38;;;1.35;;
12832;SDS011;6483;51.310;4.462;2022-08-01T14:18:40;3.95;;;1.60;;
12832;SDS011;6483;51.310;4.462;2022-08-01T14:21:07;3.28;;;1.38;;
12832;SDS011;6483;51.310;4.462;2022-08-01T14:23:33;2.38;;;1.40;;
12832;SDS011;6483;51.310;4.462;2022-08-01T14:25:58;4.03;;;1.50;;
12832;SDS011;6483;51.310;4.462;2022-08-01T14:28:24;5.32;;;1.50;;
12832;SDS011;6483;51.310;4.462;2022-08-01T14:30:52;3.00;;;1.20;;
12832;SDS011;6483;51.310;4.462;2022-08-01T14:33:23;2.17;;;1.48;;
12832;SDS011;6483;51.310;4.462;2022-08-01T14:35:52;3.25;;;1.45;;
12832;SDS011;6483;51.310;4.462;2022-08-01T14:38:20;3.05;;;1.13;;
12832;SDS011;6483;51.310;4.462;2022-08-01T14:40:47;2.97;;;1.40;;
12832;SDS011;6483;51.310;4.462;2022-08-01T14:43:17;3.47;;;1.50;;
12832;SDS011;6483;51.310;4.462;2022-08-01T14:45:43;2.78;;;1.50;;
12832;SDS011;6483;51.310;4.462;2022-08-01T14:48:16;2.55;;;1.40;;
12832;SDS011;6483;51.310;4.462;2022-08-01T14:50:44;2.60;;;1.35;;
12832;SDS011;6483;51.310;4.462;2022-08-01T14:53:10;3.00;;;1.10;;
12832;SDS011;6483;51.310;4.462;2022-08-01T14:55:35;3.92;;;1.13;;
12832;SDS011;6483;51.310;4.462;2022-08-01T14:58:07;2.35;;;1.23;;
12832;SDS011;6483;51.310;4.462;2022-08-01T15:01:00;2.60;;;1.33;;
12832;SDS011;6483;51.310;4.462;2022-08-01T15:03:29;5.88;;;1.52;;
12832;SDS011;6483;51.310;4.462;2022-08-01T15:05:56;2.92;;;1.20;;
12832;SDS011;6483;51.310;4.462;2022-08-01T15:08:25;2.20;;;1.17;;
12832;SDS011;6483;51.310;4.462;2022-08-01T15:10:54;4.07;;;1.05;;
12832;SDS011;6483;51.310;4.462;2022-08-01T15:13:23;3.40;;;1.02;;
12832;SDS011;6483;51.310;4.462;2022-08-01T15:15:48;1.02;;;0.90;;
12832;SDS011;6483;51.310;4.462;2022-08-01T15:18:17;3.78;;;1.42;;
12832;SDS011;6483;51.310;4.462;2022-08-01T15:20:43;1.73;;;1.10;;
12832;SDS011;6483;51.310;4.462;2022-08-01T15:23:10;7.05;;;1.17;;
12832;SDS011;6483;51.310;4.462;2022-08-01T15:25:39;3.05;;;1.20;;
12832;SDS011;6483;51.310;4.462;2022-08-01T15:28:04;3.15;;;1.52;;
12832;SDS011;6483;51.310;4.462;2022-08-01T15:30:30;7.43;;;1.42;;
12832;SDS011;6483;51.310;4.462;2022-08-01T15:32:57;2.75;;;1.20;;
12832;SDS011;6483;51.310;4.462;2022-08-01T15:35:24;2.72;;;1.30;;
12832;SDS011;6483;51.310;4.462;2022-08-01T15:37:51;2.03;;;0.77;;
12832;SDS011;6483;51.310;4.462;2022-08-01T15:40:18;2.78;;;1.15;;
12832;SDS011;6483;51.310;4.462;2022-08-01T15:42:44;3.17;;;1.20;;
12832;SDS011;6483;51.310;4.462;2022-08-01T15:45:10;2.03;;;1.00;;
12832;SDS011;6483;51.310;4.462;2022-08-01T15:47:41;1.88;;;0.90;;
12832;SDS011;6483;51.310;4.462;2022-08-01T15:50:07;3.22;;;1.15;;
12832;SDS011;6483;51.310;4.462;2022-08-01T15:52:36;2.58;;;1.05;;
12832;SDS011;6483;51.310;4.462;2022-08-01T15:55:05;2.42;;;0.85;;
12832;SDS011;6483;51.310;4.462;2022-08-01T15:57:35;2.05;;;1.23;;
12832;SDS011;6483;51.310;4.462;2022-08-01T16:00:06;2.28;;;1.00;;
12832;SDS011;6483;51.310;4.462;2022-08-01T16:02:33;1.48;;;1.02;;
12832;SDS011;6483;51.310;4.462;2022-08-01T16:04:59;2.00;;;1.00;;